ENY3356 MYEF-KMIA
Flight info
| Callsign | ENY3356 |
|---|---|
| Flight time | 1h 3m |
| Altitude | 28000 |
| Route | CILEX DCT MADIZ VIICE2 |
| Aircraft | E75L/M-SDE3GILORVW/S |
Departure
| Time | 2026-05-05 02:42 |
|---|---|
| Airport | Exuma International Airport (MYEF) |
Arrival
| Time | 2026-05-05 03:45 |
|---|---|
| Airport | Miami International Airport (KMIA) |
| Time | Latitude | Longitude | Altitude | Speed | Heading |
|---|---|---|---|---|---|
| 2026-05-05 01:40 | 23.56316 | -75.87259 | 19 ft | 0 kts | 26° |
| 2026-05-05 02:38 | 23.56327 | -75.87261 | 19 ft | 3 kts | 320° |
| 2026-05-05 02:39 | 23.56314 | -75.87311 | 17 ft | 10 kts | 258° |
| 2026-05-05 02:39 | 23.56287 | -75.87395 | 16 ft | 13 kts | 224° |
| 2026-05-05 02:39 | 23.56205 | -75.87446 | 16 ft | 14 kts | 207° |
| 2026-05-05 02:39 | 23.56114 | -75.87456 | 16 ft | 14 kts | 141° |
| 2026-05-05 02:40 | 23.56058 | -75.87359 | 16 ft | 15 kts | 117° |
| 2026-05-05 02:40 | 23.56008 | -75.87245 | 16 ft | 17 kts | 115° |
| 2026-05-05 02:40 | 23.55953 | -75.87116 | 16 ft | 19 kts | 117° |
| 2026-05-05 02:40 | 23.55883 | -75.86980 | 16 ft | 21 kts | 120° |
| 2026-05-05 02:41 | 23.55834 | -75.86857 | 16 ft | 14 kts | 114° |
| 2026-05-05 02:41 | 23.55822 | -75.86876 | 16 ft | 8 kts | 302° |
| 2026-05-05 02:41 | 23.55890 | -75.87013 | 16 ft | 47 kts | 300° |
| 2026-05-05 02:41 | 23.56142 | -75.87533 | 16 ft | 105 kts | 297° |
| 2026-05-05 02:42 | 23.56554 | -75.88391 | 16 ft | 150 kts | 298° |
| 2026-05-05 02:42 | 23.57046 | -75.89421 | 378 ft | 150 kts | 302° |
| 2026-05-05 02:42 | 23.57569 | -75.90469 | 686 ft | 165 kts | 300° |
| 2026-05-05 02:42 | 23.58109 | -75.91605 | 1028 ft | 178 kts | 300° |
| 2026-05-05 02:43 | 23.58712 | -75.92867 | 1341 ft | 195 kts | 299° |
| 2026-05-05 02:43 | 23.59361 | -75.94224 | 1675 ft | 209 kts | 299° |
| 2026-05-05 02:43 | 23.59992 | -75.95702 | 1988 ft | 226 kts | 292° |
| 2026-05-05 02:43 | 23.60592 | -75.97380 | 2313 ft | 244 kts | 292° |
| 2026-05-05 02:44 | 23.61229 | -75.99161 | 2711 ft | 258 kts | 291° |
| 2026-05-05 02:44 | 23.61897 | -76.01032 | 3107 ft | 271 kts | 291° |
| 2026-05-05 02:44 | 23.62596 | -76.02990 | 3498 ft | 283 kts | 291° |
| 2026-05-05 02:44 | 23.63324 | -76.05030 | 3904 ft | 294 kts | 291° |
| 2026-05-05 02:45 | 23.64062 | -76.07099 | 4290 ft | 295 kts | 291° |
| 2026-05-05 02:45 | 23.64807 | -76.09188 | 4654 ft | 296 kts | 290° |
| 2026-05-05 02:45 | 23.65555 | -76.11288 | 5017 ft | 298 kts | 290° |
| 2026-05-05 02:45 | 23.66293 | -76.13360 | 5596 ft | 298 kts | 290° |
| 2026-05-05 02:46 | 23.67044 | -76.15469 | 6200 ft | 301 kts | 290° |
| 2026-05-05 02:46 | 23.67800 | -76.17596 | 6804 ft | 302 kts | 290° |
| 2026-05-05 02:46 | 23.68563 | -76.19742 | 7411 ft | 305 kts | 290° |
| 2026-05-05 02:46 | 23.69326 | -76.21890 | 8012 ft | 309 kts | 290° |
| 2026-05-05 02:47 | 23.70109 | -76.24092 | 8618 ft | 310 kts | 290° |
| 2026-05-05 02:47 | 23.70887 | -76.26286 | 9211 ft | 313 kts | 290° |
| 2026-05-05 02:47 | 23.71669 | -76.28490 | 9807 ft | 316 kts | 290° |
| 2026-05-05 02:47 | 23.72473 | -76.30754 | 10414 ft | 317 kts | 290° |
| 2026-05-05 02:48 | 23.73264 | -76.32986 | 11018 ft | 320 kts | 290° |
| 2026-05-05 02:48 | 23.74063 | -76.35239 | 11612 ft | 322 kts | 290° |
| 2026-05-05 02:48 | 23.74874 | -76.37530 | 12214 ft | 323 kts | 290° |
| 2026-05-05 02:48 | 23.75688 | -76.39830 | 12815 ft | 327 kts | 290° |
| 2026-05-05 02:49 | 23.76504 | -76.42138 | 13405 ft | 327 kts | 290° |
| 2026-05-05 02:49 | 23.77316 | -76.44433 | 13987 ft | 328 kts | 290° |
| 2026-05-05 02:49 | 23.78137 | -76.46757 | 14586 ft | 330 kts | 289° |
| 2026-05-05 02:49 | 23.78969 | -76.49113 | 15179 ft | 332 kts | 289° |
| 2026-05-05 02:50 | 23.79797 | -76.51459 | 15768 ft | 333 kts | 289° |
| 2026-05-05 02:50 | 23.80626 | -76.53810 | 16357 ft | 332 kts | 289° |
| 2026-05-05 02:50 | 23.81445 | -76.56133 | 16934 ft | 334 kts | 289° |
| 2026-05-05 02:50 | 23.82281 | -76.58506 | 17523 ft | 335 kts | 289° |
| 2026-05-05 02:51 | 23.83110 | -76.60859 | 18104 ft | 335 kts | 289° |
| 2026-05-05 02:51 | 23.83948 | -76.63240 | 18691 ft | 336 kts | 289° |
| 2026-05-05 02:51 | 23.84776 | -76.65591 | 19279 ft | 335 kts | 288° |
| 2026-05-05 02:51 | 23.85619 | -76.67989 | 19887 ft | 335 kts | 288° |
| 2026-05-05 02:52 | 23.86442 | -76.70332 | 20476 ft | 334 kts | 288° |
| 2026-05-05 02:52 | 23.87265 | -76.72675 | 21071 ft | 332 kts | 288° |
| 2026-05-05 02:52 | 23.88091 | -76.75028 | 21669 ft | 330 kts | 288° |
| 2026-05-05 02:52 | 23.88899 | -76.77334 | 22264 ft | 327 kts | 288° |
| 2026-05-05 02:53 | 23.89709 | -76.79640 | 22869 ft | 324 kts | 288° |
| 2026-05-05 02:53 | 23.90513 | -76.81937 | 23502 ft | 321 kts | 287° |
| 2026-05-05 02:53 | 23.91306 | -76.84202 | 24126 ft | 317 kts | 287° |
| 2026-05-05 02:53 | 23.92088 | -76.86436 | 24673 ft | 315 kts | 288° |
| 2026-05-05 02:54 | 23.92859 | -76.88640 | 25230 ft | 313 kts | 288° |
| 2026-05-05 02:54 | 23.93637 | -76.90865 | 25783 ft | 310 kts | 287° |
| 2026-05-05 02:54 | 23.94401 | -76.93051 | 26332 ft | 307 kts | 287° |
| 2026-05-05 02:54 | 23.95150 | -76.95194 | 26879 ft | 304 kts | 288° |
| 2026-05-05 02:55 | 23.95902 | -76.97348 | 27436 ft | 300 kts | 287° |
| 2026-05-05 02:55 | 23.96635 | -76.99451 | 27900 ft | 299 kts | 288° |
| 2026-05-05 02:55 | 23.97385 | -77.01602 | 27944 ft | 310 kts | 288° |
| 2026-05-05 02:55 | 23.98170 | -77.03855 | 27959 ft | 321 kts | 288° |
| 2026-05-05 02:56 | 23.98968 | -77.06145 | 27973 ft | 331 kts | 287° |
| 2026-05-05 02:56 | 23.99801 | -77.08541 | 27967 ft | 342 kts | 288° |
| 2026-05-05 02:56 | 24.00658 | -77.11002 | 27962 ft | 352 kts | 288° |
| 2026-05-05 02:56 | 24.01550 | -77.13565 | 27963 ft | 362 kts | 288° |
| 2026-05-05 02:57 | 24.02446 | -77.16143 | 27965 ft | 371 kts | 288° |
| 2026-05-05 02:57 | 24.03380 | -77.18833 | 27965 ft | 378 kts | 288° |
| 2026-05-05 02:57 | 24.04313 | -77.21519 | 27954 ft | 383 kts | 288° |
| 2026-05-05 02:57 | 24.05253 | -77.24226 | 27949 ft | 381 kts | 288° |
| 2026-05-05 02:58 | 24.06191 | -77.26935 | 27947 ft | 381 kts | 288° |
| 2026-05-05 02:58 | 24.07127 | -77.29633 | 27944 ft | 380 kts | 288° |
| 2026-05-05 02:58 | 24.08053 | -77.32309 | 27948 ft | 380 kts | 288° |
| 2026-05-05 02:58 | 24.08994 | -77.35029 | 27948 ft | 378 kts | 288° |
| 2026-05-05 02:59 | 24.09926 | -77.37723 | 27948 ft | 380 kts | 288° |
| 2026-05-05 02:59 | 24.10857 | -77.40419 | 27949 ft | 380 kts | 288° |
| 2026-05-05 02:59 | 24.11791 | -77.43123 | 27948 ft | 378 kts | 288° |
| 2026-05-05 02:59 | 24.12732 | -77.45850 | 27944 ft | 380 kts | 288° |
| 2026-05-05 03:00 | 24.13658 | -77.48537 | 27947 ft | 378 kts | 288° |
| 2026-05-05 03:00 | 24.14591 | -77.51243 | 27946 ft | 381 kts | 288° |
| 2026-05-05 03:00 | 24.15519 | -77.53935 | 27950 ft | 378 kts | 288° |
| 2026-05-05 03:00 | 24.16452 | -77.56647 | 27947 ft | 379 kts | 288° |
| 2026-05-05 03:01 | 24.17383 | -77.59354 | 27945 ft | 380 kts | 288° |
| 2026-05-05 03:01 | 24.18315 | -77.62067 | 27943 ft | 381 kts | 288° |
| 2026-05-05 03:01 | 24.19249 | -77.64785 | 27947 ft | 379 kts | 288° |
| 2026-05-05 03:01 | 24.20169 | -77.67464 | 27960 ft | 378 kts | 288° |
| 2026-05-05 03:02 | 24.21098 | -77.70174 | 27956 ft | 380 kts | 288° |
| 2026-05-05 03:02 | 24.22026 | -77.72878 | 27961 ft | 378 kts | 288° |
| 2026-05-05 03:02 | 24.22943 | -77.75555 | 27963 ft | 379 kts | 288° |
| 2026-05-05 03:02 | 24.23865 | -77.78249 | 27970 ft | 379 kts | 288° |
| 2026-05-05 03:03 | 24.24786 | -77.80943 | 27972 ft | 378 kts | 288° |
| 2026-05-05 03:03 | 24.25700 | -77.83615 | 27970 ft | 378 kts | 288° |
| 2026-05-05 03:03 | 24.26636 | -77.86324 | 27973 ft | 378 kts | 290° |
| 2026-05-05 03:03 | 24.27876 | -77.88844 | 27976 ft | 382 kts | 300° |
| 2026-05-05 03:04 | 24.29373 | -77.91245 | 27977 ft | 383 kts | 300° |
| 2026-05-05 03:04 | 24.30874 | -77.93671 | 27974 ft | 382 kts | 300° |
| 2026-05-05 03:04 | 24.32388 | -77.96128 | 27973 ft | 381 kts | 300° |
| 2026-05-05 03:04 | 24.33884 | -77.98560 | 27972 ft | 383 kts | 300° |
| 2026-05-05 03:05 | 24.35378 | -78.00990 | 27973 ft | 381 kts | 300° |
| 2026-05-05 03:05 | 24.36868 | -78.03416 | 27968 ft | 382 kts | 300° |
| 2026-05-05 03:05 | 24.38347 | -78.05824 | 27971 ft | 381 kts | 300° |
| 2026-05-05 03:05 | 24.39830 | -78.08240 | 27972 ft | 381 kts | 300° |
| 2026-05-05 03:06 | 24.41319 | -78.10668 | 27972 ft | 381 kts | 300° |
| 2026-05-05 03:06 | 24.42798 | -78.13080 | 27968 ft | 380 kts | 300° |
| 2026-05-05 03:06 | 24.44267 | -78.15477 | 27969 ft | 379 kts | 300° |
| 2026-05-05 03:06 | 24.45751 | -78.17899 | 27959 ft | 380 kts | 301° |
| 2026-05-05 03:07 | 24.47233 | -78.20322 | 27959 ft | 381 kts | 300° |
| 2026-05-05 03:07 | 24.48694 | -78.22710 | 27956 ft | 382 kts | 301° |
| 2026-05-05 03:07 | 24.50181 | -78.25141 | 27950 ft | 381 kts | 301° |
| 2026-05-05 03:07 | 24.51653 | -78.27548 | 27951 ft | 381 kts | 301° |
| 2026-05-05 03:08 | 24.53117 | -78.29944 | 27947 ft | 380 kts | 301° |
| 2026-05-05 03:08 | 24.54586 | -78.32349 | 27947 ft | 380 kts | 301° |
| 2026-05-05 03:08 | 24.56071 | -78.34782 | 27949 ft | 382 kts | 300° |
| 2026-05-05 03:08 | 24.57535 | -78.37182 | 27947 ft | 381 kts | 301° |
| 2026-05-05 03:09 | 24.59006 | -78.39593 | 27942 ft | 379 kts | 301° |
| 2026-05-05 03:09 | 24.60482 | -78.42017 | 27947 ft | 381 kts | 301° |
| 2026-05-05 03:09 | 24.61938 | -78.44407 | 27945 ft | 378 kts | 301° |
| 2026-05-05 03:09 | 24.63411 | -78.46825 | 27944 ft | 379 kts | 301° |
| 2026-05-05 03:10 | 24.64885 | -78.49247 | 27942 ft | 379 kts | 301° |
| 2026-05-05 03:10 | 24.66346 | -78.51651 | 27945 ft | 380 kts | 301° |
| 2026-05-05 03:10 | 24.67801 | -78.54042 | 27943 ft | 379 kts | 301° |
| 2026-05-05 03:10 | 24.69281 | -78.56478 | 27944 ft | 380 kts | 301° |
| 2026-05-05 03:11 | 24.70730 | -78.58865 | 27941 ft | 378 kts | 301° |
| 2026-05-05 03:11 | 24.72201 | -78.61289 | 27942 ft | 380 kts | 301° |
| 2026-05-05 03:11 | 24.73666 | -78.63702 | 27941 ft | 379 kts | 301° |
| 2026-05-05 03:11 | 24.75118 | -78.66096 | 27950 ft | 380 kts | 301° |
| 2026-05-05 03:12 | 24.76600 | -78.68542 | 27954 ft | 381 kts | 301° |
| 2026-05-05 03:12 | 24.78070 | -78.70966 | 27953 ft | 379 kts | 301° |
| 2026-05-05 03:12 | 24.79534 | -78.73386 | 27956 ft | 380 kts | 301° |
| 2026-05-05 03:12 | 24.80991 | -78.75792 | 27953 ft | 380 kts | 301° |
| 2026-05-05 03:13 | 24.82453 | -78.78209 | 27954 ft | 379 kts | 301° |
| 2026-05-05 03:13 | 24.83921 | -78.80637 | 27951 ft | 380 kts | 301° |
| 2026-05-05 03:13 | 24.85392 | -78.83072 | 27954 ft | 380 kts | 301° |
| 2026-05-05 03:13 | 24.86861 | -78.85504 | 27953 ft | 381 kts | 301° |
| 2026-05-05 03:14 | 24.88318 | -78.87918 | 27950 ft | 379 kts | 301° |
| 2026-05-05 03:14 | 24.89785 | -78.90350 | 27513 ft | 384 kts | 301° |
| 2026-05-05 03:14 | 24.91246 | -78.92771 | 26869 ft | 380 kts | 301° |
| 2026-05-05 03:14 | 24.92703 | -78.95187 | 26222 ft | 374 kts | 301° |
| 2026-05-05 03:15 | 24.94114 | -78.97530 | 25591 ft | 368 kts | 301° |
| 2026-05-05 03:15 | 24.95520 | -78.99863 | 24959 ft | 364 kts | 301° |
| 2026-05-05 03:15 | 24.96926 | -79.02200 | 24317 ft | 363 kts | 301° |
| 2026-05-05 03:15 | 24.98316 | -79.04510 | 23693 ft | 361 kts | 300° |
| 2026-05-05 03:16 | 24.99689 | -79.06793 | 23071 ft | 358 kts | 300° |
| 2026-05-05 03:16 | 25.01047 | -79.09054 | 22458 ft | 354 kts | 300° |
| 2026-05-05 03:16 | 25.02408 | -79.11320 | 21843 ft | 352 kts | 301° |
| 2026-05-05 03:16 | 25.03752 | -79.13559 | 21234 ft | 349 kts | 301° |
| 2026-05-05 03:17 | 25.05081 | -79.15772 | 20558 ft | 349 kts | 300° |
| 2026-05-05 03:17 | 25.06414 | -79.17993 | 19870 ft | 346 kts | 300° |
| 2026-05-05 03:17 | 25.07732 | -79.20192 | 19183 ft | 343 kts | 301° |
| 2026-05-05 03:17 | 25.09036 | -79.22369 | 18501 ft | 339 kts | 300° |
| 2026-05-05 03:18 | 25.10320 | -79.24511 | 17812 ft | 335 kts | 300° |
| 2026-05-05 03:18 | 25.11597 | -79.26644 | 17136 ft | 332 kts | 300° |
| 2026-05-05 03:18 | 25.12860 | -79.28754 | 16463 ft | 330 kts | 300° |
| 2026-05-05 03:18 | 25.14107 | -79.30840 | 15791 ft | 328 kts | 300° |
| 2026-05-05 03:19 | 25.16590 | -79.34991 | 14991 ft | 320 kts | 300° |
| 2026-05-05 03:19 | 25.17832 | -79.37073 | 14963 ft | 325 kts | 300° |
| 2026-05-05 03:19 | 25.19067 | -79.39140 | 14962 ft | 326 kts | 300° |
| 2026-05-05 03:20 | 25.20309 | -79.41221 | 14960 ft | 328 kts | 300° |
| 2026-05-05 03:20 | 25.21574 | -79.43340 | 14959 ft | 327 kts | 300° |
| 2026-05-05 03:20 | 25.22820 | -79.45430 | 14958 ft | 329 kts | 300° |
| 2026-05-05 03:20 | 25.24066 | -79.47519 | 14957 ft | 327 kts | 300° |
| 2026-05-05 03:21 | 25.25314 | -79.49613 | 14955 ft | 323 kts | 300° |
| 2026-05-05 03:21 | 25.26507 | -79.51614 | 14936 ft | 300 kts | 300° |
| 2026-05-05 03:21 | 25.27613 | -79.53470 | 14929 ft | 278 kts | 300° |
| 2026-05-05 03:21 | 25.28637 | -79.55189 | 14934 ft | 260 kts | 299° |
| 2026-05-05 03:22 | 25.29634 | -79.56868 | 14957 ft | 260 kts | 299° |
| 2026-05-05 03:22 | 25.30626 | -79.58540 | 14964 ft | 263 kts | 300° |
| 2026-05-05 03:22 | 25.31648 | -79.60258 | 14960 ft | 264 kts | 299° |
| 2026-05-05 03:22 | 25.32658 | -79.61958 | 14963 ft | 266 kts | 299° |
| 2026-05-05 03:23 | 25.33666 | -79.63655 | 14960 ft | 267 kts | 300° |
| 2026-05-05 03:23 | 25.34686 | -79.65372 | 14960 ft | 266 kts | 299° |
| 2026-05-05 03:23 | 25.35696 | -79.67074 | 14971 ft | 266 kts | 299° |
| 2026-05-05 03:23 | 25.36724 | -79.68806 | 14970 ft | 266 kts | 299° |
| 2026-05-05 03:24 | 25.37748 | -79.70532 | 14969 ft | 267 kts | 299° |
| 2026-05-05 03:24 | 25.38755 | -79.72228 | 14971 ft | 267 kts | 300° |
| 2026-05-05 03:24 | 25.39838 | -79.73929 | 14972 ft | 267 kts | 301° |
| 2026-05-05 03:24 | 25.40913 | -79.75603 | 14967 ft | 268 kts | 301° |
| 2026-05-05 03:25 | 25.42003 | -79.77299 | 14467 ft | 274 kts | 301° |
| 2026-05-05 03:25 | 25.43103 | -79.79013 | 13948 ft | 274 kts | 301° |
| 2026-05-05 03:25 | 25.44203 | -79.80727 | 13427 ft | 274 kts | 301° |
| 2026-05-05 03:25 | 25.45302 | -79.82439 | 12907 ft | 274 kts | 301° |
| 2026-05-05 03:26 | 25.46403 | -79.84154 | 12385 ft | 274 kts | 301° |
| 2026-05-05 03:26 | 25.47502 | -79.85868 | 12012 ft | 267 kts | 301° |
| 2026-05-05 03:26 | 25.48547 | -79.87497 | 11969 ft | 255 kts | 301° |
| 2026-05-05 03:26 | 25.49579 | -79.89110 | 11974 ft | 258 kts | 301° |
| 2026-05-05 03:27 | 25.50618 | -79.90733 | 11827 ft | 266 kts | 301° |
| 2026-05-05 03:27 | 25.51700 | -79.92424 | 11186 ft | 273 kts | 301° |
| 2026-05-05 03:27 | 25.52800 | -79.94142 | 10576 ft | 276 kts | 301° |
| 2026-05-05 03:27 | 25.53907 | -79.95873 | 9967 ft | 279 kts | 301° |
| 2026-05-05 03:28 | 25.55037 | -79.97639 | 9353 ft | 281 kts | 301° |
| 2026-05-05 03:28 | 25.56154 | -79.99386 | 9007 ft | 272 kts | 302° |
| 2026-05-05 03:28 | 25.57212 | -80.01037 | 8960 ft | 254 kts | 301° |
| 2026-05-05 03:28 | 25.58220 | -80.02616 | 8965 ft | 250 kts | 301° |
| 2026-05-05 03:29 | 25.59235 | -80.04207 | 8838 ft | 257 kts | 301° |
| 2026-05-05 03:29 | 25.60269 | -80.05829 | 8251 ft | 263 kts | 302° |
| 2026-05-05 03:29 | 25.61339 | -80.07506 | 7685 ft | 266 kts | 302° |
| 2026-05-05 03:29 | 25.62393 | -80.09159 | 7126 ft | 268 kts | 303° |
| 2026-05-05 03:30 | 25.63477 | -80.10857 | 6559 ft | 270 kts | 303° |
| 2026-05-05 03:30 | 25.64557 | -80.12550 | 6064 ft | 269 kts | 304° |
| 2026-05-05 03:30 | 25.65548 | -80.14230 | 5976 ft | 250 kts | 295° |
| 2026-05-05 03:30 | 25.66274 | -80.15913 | 5957 ft | 232 kts | 294° |
| 2026-05-05 03:31 | 25.66939 | -80.17473 | 5883 ft | 219 kts | 294° |
| 2026-05-05 03:31 | 25.67585 | -80.18992 | 5657 ft | 213 kts | 294° |
| 2026-05-05 03:31 | 25.68207 | -80.20454 | 5448 ft | 207 kts | 294° |
| 2026-05-05 03:31 | 25.68815 | -80.21886 | 5244 ft | 202 kts | 295° |
| 2026-05-05 03:32 | 25.69405 | -80.23275 | 5036 ft | 197 kts | 295° |
| 2026-05-05 03:32 | 25.69986 | -80.24644 | 4834 ft | 193 kts | 295° |
| 2026-05-05 03:32 | 25.70550 | -80.25974 | 4639 ft | 192 kts | 295° |
| 2026-05-05 03:32 | 25.71109 | -80.27338 | 4449 ft | 195 kts | 285° |
| 2026-05-05 03:33 | 25.71182 | -80.28844 | 4174 ft | 201 kts | 269° |
| 2026-05-05 03:33 | 25.71116 | -80.30415 | 3600 ft | 209 kts | 268° |
| 2026-05-05 03:33 | 25.71045 | -80.32018 | 3101 ft | 211 kts | 268° |
| 2026-05-05 03:33 | 25.70972 | -80.33598 | 3037 ft | 196 kts | 268° |
| 2026-05-05 03:34 | 25.70903 | -80.35097 | 3054 ft | 195 kts | 268° |
| 2026-05-05 03:34 | 25.70832 | -80.36612 | 3166 ft | 199 kts | 268° |
| 2026-05-05 03:34 | 25.70760 | -80.38135 | 2991 ft | 192 kts | 268° |
| 2026-05-05 03:34 | 25.70693 | -80.39539 | 2955 ft | 179 kts | 268° |
| 2026-05-05 03:35 | 25.70627 | -80.40921 | 2973 ft | 177 kts | 268° |
| 2026-05-05 03:35 | 25.70561 | -80.42296 | 2981 ft | 181 kts | 268° |
| 2026-05-05 03:35 | 25.70609 | -80.43681 | 2960 ft | 181 kts | 290° |
| 2026-05-05 03:35 | 25.71183 | -80.44911 | 2995 ft | 176 kts | 302° |
| 2026-05-05 03:36 | 25.71764 | -80.46020 | 2939 ft | 159 kts | 303° |
| 2026-05-05 03:36 | 25.72294 | -80.47028 | 2921 ft | 142 kts | 303° |
| 2026-05-05 03:36 | 25.72790 | -80.47966 | 2968 ft | 141 kts | 303° |
| 2026-05-05 03:36 | 25.73295 | -80.48917 | 2988 ft | 144 kts | 304° |
| 2026-05-05 03:37 | 25.73808 | -80.49883 | 2988 ft | 147 kts | 303° |
| 2026-05-05 03:37 | 25.74331 | -80.50868 | 2984 ft | 146 kts | 303° |
| 2026-05-05 03:37 | 25.74853 | -80.51850 | 2983 ft | 147 kts | 303° |
| 2026-05-05 03:37 | 25.75371 | -80.52824 | 2979 ft | 148 kts | 303° |
| 2026-05-05 03:38 | 25.75898 | -80.53816 | 2981 ft | 149 kts | 303° |
| 2026-05-05 03:38 | 25.76441 | -80.54796 | 2972 ft | 147 kts | 315° |
| 2026-05-05 03:38 | 25.77291 | -80.55306 | 2983 ft | 139 kts | 360° |
| 2026-05-05 03:38 | 25.78182 | -80.55000 | 2988 ft | 134 kts | 45° |
| 2026-05-05 03:39 | 25.78563 | -80.54092 | 2993 ft | 132 kts | 89° |
| 2026-05-05 03:39 | 25.78476 | -80.53080 | 2991 ft | 135 kts | 95° |
| 2026-05-05 03:39 | 25.78363 | -80.52052 | 2980 ft | 134 kts | 95° |
| 2026-05-05 03:39 | 25.78248 | -80.51036 | 2975 ft | 132 kts | 95° |
| 2026-05-05 03:40 | 25.78129 | -80.50015 | 2978 ft | 132 kts | 96° |
| 2026-05-05 03:40 | 25.78008 | -80.49000 | 2977 ft | 133 kts | 97° |
| 2026-05-05 03:40 | 25.77906 | -80.47989 | 2889 ft | 131 kts | 88° |
| 2026-05-05 03:40 | 25.77945 | -80.46976 | 2757 ft | 131 kts | 87° |
| 2026-05-05 03:41 | 25.77987 | -80.45963 | 2595 ft | 131 kts | 87° |
| 2026-05-05 03:41 | 25.78030 | -80.44952 | 2425 ft | 129 kts | 86° |
| 2026-05-05 03:41 | 25.78073 | -80.43961 | 2256 ft | 128 kts | 86° |
| 2026-05-05 03:41 | 25.78115 | -80.42967 | 2084 ft | 129 kts | 86° |
| 2026-05-05 03:42 | 25.78158 | -80.41977 | 1913 ft | 126 kts | 85° |
| 2026-05-05 03:42 | 25.78200 | -80.41001 | 1744 ft | 126 kts | 85° |
| 2026-05-05 03:42 | 25.78242 | -80.40028 | 1577 ft | 127 kts | 85° |
| 2026-05-05 03:42 | 25.78284 | -80.39049 | 1409 ft | 127 kts | 86° |
| 2026-05-05 03:43 | 25.78326 | -80.38068 | 1244 ft | 126 kts | 86° |
| 2026-05-05 03:43 | 25.78369 | -80.37078 | 1072 ft | 127 kts | 86° |
| 2026-05-05 03:43 | 25.78411 | -80.36095 | 906 ft | 128 kts | 85° |
| 2026-05-05 03:43 | 25.78453 | -80.35103 | 737 ft | 128 kts | 86° |
| 2026-05-05 03:44 | 25.78495 | -80.34116 | 572 ft | 128 kts | 86° |
| 2026-05-05 03:44 | 25.78537 | -80.33134 | 399 ft | 125 kts | 85° |
| 2026-05-05 03:44 | 25.78583 | -80.32177 | 226 ft | 125 kts | 86° |
| 2026-05-05 03:44 | 25.78622 | -80.31225 | 80 ft | 124 kts | 86° |
| 2026-05-05 03:45 | 25.78663 | -80.30299 | 12 ft | 111 kts | 88° |
| 2026-05-05 03:45 | 25.78689 | -80.29583 | 12 ft | 78 kts | 87° |
| 2026-05-05 03:45 | 25.78734 | -80.29241 | 12 ft | 15 kts | 63° |
| 2026-05-05 03:45 | 25.78805 | -80.29153 | 12 ft | 15 kts | 56° |
| 2026-05-05 03:46 | 25.78825 | -80.29034 | 12 ft | 16 kts | 82° |
| 2026-05-05 03:46 | 25.78852 | -80.28912 | 12 ft | 16 kts | 68° |
| 2026-05-05 03:46 | 25.78949 | -80.28867 | 12 ft | 13 kts | 359° |
| 2026-05-05 03:46 | 25.79029 | -80.28872 | 12 ft | 12 kts | 357° |
| 2026-05-05 03:47 | 25.79117 | -80.28876 | 12 ft | 12 kts | 358° |
| 2026-05-05 03:47 | 25.79211 | -80.28876 | 12 ft | 13 kts | 2° |
| 2026-05-05 03:47 | 25.79310 | -80.28880 | 12 ft | 14 kts | 358° |
| 2026-05-05 03:47 | 25.79415 | -80.28883 | 12 ft | 15 kts | 357° |
| 2026-05-05 03:48 | 25.79525 | -80.28890 | 12 ft | 16 kts | 356° |
| 2026-05-05 03:48 | 25.79634 | -80.28876 | 12 ft | 16 kts | 48° |
| 2026-05-05 03:48 | 25.79712 | -80.28811 | 12 ft | 15 kts | 355° |
| 2026-05-05 03:48 | 25.79756 | -80.28759 | 12 ft | 11 kts | 90° |
| 2026-05-05 03:49 | 25.79757 | -80.28707 | 12 ft | 4 kts | 88° |
| 2026-05-05 03:49 | 25.79759 | -80.28669 | 12 ft | 5 kts | 86° |
| 2026-05-05 03:49 | 25.79779 | -80.28632 | 12 ft | 6 kts | 52° |
| 2026-05-05 03:49 | 25.79791 | -80.28616 | 12 ft | 0 kts | 52° |